| Time | Avg. Air Temp | Dew Point | Avg. Rel Humidity | Avg. 2 Min Wind Speed | Max Gust Velocity | MGV Time | MGV Direction | Avg. Spot Wind Velocity |
|---|---|---|---|---|---|---|---|---|
| 2026-05-04 17:25:00 | 6° C | -3° C | 50% | 6 km/h | 9 km/h | 17:25:00 | NW | 5 km/h |
| 16:25:00 | 7° C | -3° C | 51% | 9 km/h | 19 km/h | 16:25:00 | NE | 5 km/h |
| 15:25:00 | 6° C | -3° C | 53% | 4 km/h | 14 km/h | 15:21:00 | NE | 6 km/h |
| 14:25:00 | 6° C | -4° C | 52% | 10 km/h | 14 km/h | 14:25:00 | NE | 7 km/h |
| 13:25:00 | 6° C | -3° C | 54% | 1 km/h | 15 km/h | 13:22:00 | SE | 4 km/h |
| 12:25:00 | 6° C | -3° C | 55% | 1 km/h | 7 km/h | 12:23:00 | N | 1 km/h |
| 11:25:00 | 4° C | -3° C | 59% | 8 km/h | 21 km/h | 11:21:00 | N | 11 km/h |
| 10:25:00 | 3° C | -3° C | 63% | 30 km/h | 36 km/h | 10:22:00 | NE | 30 km/h |
| 09:25:00 | 3° C | -3° C | 62% | 32 km/h | 41 km/h | 09:22:00 | NE | 34 km/h |
| 08:25:00 | 3° C | -3° C | 61% | 34 km/h | 38 km/h | 08:21:00 | NE | 30 km/h |
| 07:25:00 | 3° C | -4° C | 62% | 32 km/h | 39 km/h | 07:22:00 | NE | 29 km/h |
| 06:25:00 | 3° C | -3° C | 61% | 24 km/h | 26 km/h | 06:25:00 | NE | 23 km/h |
| 05:25:00 | 3° C | -4° C | 59% | 25 km/h | 30 km/h | 05:23:00 | NE | 25 km/h |
| 04:25:00 | 4° C | -4° C | 53% | 20 km/h | 24 km/h | 04:21:00 | NE | 21 km/h |
| 03:25:00 | 3° C | -4° C | 58% | 5 km/h | 21 km/h | 03:21:00 | SW | 5 km/h |
| 02:25:00 | 4° C | -4° C | 57% | 6 km/h | 13 km/h | 02:24:00 | N | 5 km/h |
| 01:25:00 | 4° C | -4° C | 55% | 7 km/h | 19 km/h | 01:24:00 | SW | 9 km/h |
| 00:25:00 | 5° C | -4° C | 52% | 6 km/h | 18 km/h | 00:22:00 | N | 8 km/h |
| 23:25:00 | 5° C | -4° C | 52% | 4 km/h | 16 km/h | 23:23:00 | SE | 4 km/h |
| 22:25:00 | 6° C | -3° C | 54% | 6 km/h | 24 km/h | 22:21:00 | N | 7 km/h |
| 21:25:00 | 6° C | -2° C | 53% | 5 km/h | 14 km/h | 21:23:00 | NE | 7 km/h |
| 20:25:00 | 7° C | -3° C | 49% | 20 km/h | 24 km/h | 20:22:00 | NW | 19 km/h |
| 19:25:00 | 7° C | -3° C | 50% | 6 km/h | 13 km/h | 19:21:00 | NW | 7 km/h |
| 18:25:00 | 7° C | -3° C | 50% | 5 km/h | 15 km/h | 18:23:00 | NW | 6 km/h |
Subpeak Weather
| Time | Avg. Air Temp | Dew Point | Avg. Rel Humidity | Avg. 2 Min Wind Speed | Max Gust Velocity | MGV Time | MGV Direction | Avg. Spot Wind Velocity |
|---|---|---|---|---|---|---|---|---|
| 2026-05-04 17:25:00 | 6° C | -3° C | 50% | 6 km/h | 9 km/h | 17:25:00 | NW | 5 km/h |
| 17:20:00 | 7° C | -3° C | 50% | 2 km/h | 7 km/h | 17:17:00 | N | 2 km/h |
| 17:15:00 | 6° C | -3° C | 52% | 6 km/h | 9 km/h | 17:15:00 | W | 5 km/h |
| 17:10:00 | 6° C | -3° C | 52% | 3 km/h | 10 km/h | 17:06:00 | W | 4 km/h |
| 17:05:00 | 6° C | -4° C | 51% | 9 km/h | 17 km/h | 17:04:00 | NE | 9 km/h |
| 17:00:00 | 6° C | -3° C | 51% | 5 km/h | 11 km/h | 17:00:00 | W | 4 km/h |
| 16:55:00 | 7° C | -3° C | 50% | 3 km/h | 12 km/h | 16:53:00 | W | 2 km/h |
| 16:50:00 | 7° C | -3° C | 50% | 3 km/h | 5 km/h | 16:47:00 | W | 2 km/h |
| 16:45:00 | 6° C | -3° C | 54% | 2 km/h | 11 km/h | 16:41:00 | W | 3 km/h |
| 16:40:00 | 6° C | -3° C | 53% | 14 km/h | 20 km/h | 16:40:00 | NE | 15 km/h |
| 16:35:00 | 6° C | -3° C | 53% | 4 km/h | 7 km/h | 16:34:00 | W | 2 km/h |
| 16:30:00 | 6° C | -3° C | 53% | 4 km/h | 15 km/h | 16:26:00 | W | 5 km/h |
| 16:25:00 | 7° C | -3° C | 51% | 9 km/h | 19 km/h | 16:25:00 | NE | 5 km/h |




